Overview Statistics Trail Chart Weather Telemetry Raw packets
 

This is the latest recevied weather packets stored in our database for station/object YO8SHU-10. If no packets are shown the sender has not sent any weather packets the latest 10 day(s).

<< 14 15 16 17 18 19 20 >>
Time Temp. Humidity Pressure Rain* Wind** Luminosity Snow
1787918415 24.44° C 66% 1027.5 hPa - - - -
1787916614 25° C 76% 1027.8 hPa - - - -
1787914814 25° C 75% 1027.9 hPa - - - -
1787913014 24.44° C 81% 1027.9 hPa - - - -
1787911214 23.89° C 84% 1028 hPa - - - -
1787909414 23.33° C 97% 1028.5 hPa - - - -
1787907614 22.78° C 100% 1028.6 hPa - - - -
1787905812 22.22° C 100% 1028.8 hPa - - - -
1787904012 21.11° C 100% 1028.7 hPa - - - -
1787902212 20° C 100% 1028.6 hPa - - - -
1787900412 19.44° C 100% 1028.9 hPa - - - -
1787898612 18.33° C 100% 1028.8 hPa - - - -
1787896812 16.67° C 100% 1028.8 hPa - - - -
1787895012 16.67° C 100% 1028.6 hPa - - - -
1787893212 17.22° C 100% 1028.5 hPa - - - -
1787891412 16.11° C 100% 1028.3 hPa - - - -
1787889612 13.33° C 100% 1028.2 hPa - - - -
1787887811 11.67° C 100% 1028.4 hPa - - - -
1787886013 11.67° C 100% 1028.2 hPa - - - -
1787884211 11.67° C 100% 1028.1 hPa - - - -
1787882411 12.22° C 100% 1027.9 hPa - - - -
1787880611 12.22° C 100% 1027.9 hPa - - - -
1787878811 12.22° C 100% 1028 hPa - - - -
1787877011 12.78° C 100% 1028.2 hPa - - - -
1787875212 12.78° C 100% 1028.3 hPa - - - -

* Rain since midnight (hover to see other rain measurements)
** Current wind speed in m/s (hover to see current wind gust speed)